Terminal Aerodrome Forecast
Issued by NWS

Home | Current Version | Previous Version | Text Only | Print | Product List | Glossary On
Versions: 1 2 3 4 5 6 7 8 9 10 11 12 13 14 15 16 17 18 19 20 21
000
FTUS41 KOKX 300539
TAFHPN
TAF
KHPN 300539Z 3006/3106 VRB02KT P6SM SCT250
     FM300900 VRB02KT 5SM BR FEW015 SCT250
     FM301300 22006KT 6SM HZ VCSH FEW015 SCT070 BKN250
     FM301500 20010KT 6SM HZ BKN040 PROB30 3021/3024 3SM TSRA
      BKN030CB
     FM310000 23006KT 5SM -SHRA BKN040
     FM310300 30004KT 3SM BR SCT050 BKN080
      AMD NOT SKED=

USA.gov is the U.S. government's official web portal to all federal, state and local government web resources and services.